sensor_id;sensor_type;location;lat;lon;timestamp;P1;durP1;ratioP1;P2;durP2;ratioP2
26014;SDS011;13793;55.388;37.844;2023-05-10T00:01:05;36.47;;;22.80;;
26014;SDS011;13793;55.388;37.844;2023-05-10T00:03:36;34.03;;;22.40;;
26014;SDS011;13793;55.388;37.844;2023-05-10T00:06:07;32.70;;;21.20;;
26014;SDS011;13793;55.388;37.844;2023-05-10T00:08:37;32.93;;;21.37;;
26014;SDS011;13793;55.388;37.844;2023-05-10T00:11:08;31.00;;;20.00;;
26014;SDS011;13793;55.388;37.844;2023-05-10T00:13:39;31.43;;;19.90;;
26014;SDS011;13793;55.388;37.844;2023-05-10T00:16:10;31.63;;;20.13;;
26014;SDS011;13793;55.388;37.844;2023-05-10T00:18:41;31.87;;;19.73;;
26014;SDS011;13793;55.388;37.844;2023-05-10T00:21:12;30.57;;;20.17;;
26014;SDS011;13793;55.388;37.844;2023-05-10T00:23:42;28.80;;;19.40;;
26014;SDS011;13793;55.388;37.844;2023-05-10T00:26:13;30.90;;;21.50;;
26014;SDS011;13793;55.388;37.844;2023-05-10T00:28:46;33.23;;;21.40;;
26014;SDS011;13793;55.388;37.844;2023-05-10T00:31:16;35.27;;;22.33;;
26014;SDS011;13793;55.388;37.844;2023-05-10T00:33:47;36.40;;;21.87;;
26014;SDS011;13793;55.388;37.844;2023-05-10T00:36:18;35.90;;;22.60;;
26014;SDS011;13793;55.388;37.844;2023-05-10T00:38:49;41.27;;;23.23;;
26014;SDS011;13793;55.388;37.844;2023-05-10T00:41:20;33.63;;;21.63;;
26014;SDS011;13793;55.388;37.844;2023-05-10T00:43:51;34.93;;;21.60;;
26014;SDS011;13793;55.388;37.844;2023-05-10T00:46:21;37.80;;;22.67;;
26014;SDS011;13793;55.388;37.844;2023-05-10T00:48:52;33.57;;;22.73;;
26014;SDS011;13793;55.388;37.844;2023-05-10T00:51:22;39.03;;;23.20;;
26014;SDS011;13793;55.388;37.844;2023-05-10T00:53:53;34.20;;;21.70;;
26014;SDS011;13793;55.388;37.844;2023-05-10T00:56:25;40.97;;;22.83;;
26014;SDS011;13793;55.388;37.844;2023-05-10T00:58:56;33.27;;;21.43;;
26014;SDS011;13793;55.388;37.844;2023-05-10T01:01:27;31.07;;;21.00;;
26014;SDS011;13793;55.388;37.844;2023-05-10T01:03:59;33.53;;;21.20;;
26014;SDS011;13793;55.388;37.844;2023-05-10T01:06:29;32.03;;;20.77;;
26014;SDS011;13793;55.388;37.844;2023-05-10T01:09:00;31.40;;;21.37;;
26014;SDS011;13793;55.388;37.844;2023-05-10T01:11:32;31.60;;;20.40;;
26014;SDS011;13793;55.388;37.844;2023-05-10T01:14:06;31.93;;;19.67;;
26014;SDS011;13793;55.388;37.844;2023-05-10T01:16:38;30.87;;;19.60;;
26014;SDS011;13793;55.388;37.844;2023-05-10T01:19:22;33.60;;;20.87;;
26014;SDS011;13793;55.388;37.844;2023-05-10T01:33:32;32.63;;;20.87;;
26014;SDS011;13793;55.388;37.844;2023-05-10T01:36:16;31.53;;;19.43;;
26014;SDS011;13793;55.388;37.844;2023-05-10T01:38:50;33.07;;;20.30;;
26014;SDS011;13793;55.388;37.844;2023-05-10T01:41:25;31.97;;;20.77;;
26014;SDS011;13793;55.388;37.844;2023-05-10T01:44:09;33.17;;;21.00;;
26014;SDS011;13793;55.388;37.844;2023-05-10T01:46:41;38.63;;;21.43;;
26014;SDS011;13793;55.388;37.844;2023-05-10T01:49:16;32.87;;;20.33;;
26014;SDS011;13793;55.388;37.844;2023-05-10T01:51:46;36.10;;;20.60;;
26014;SDS011;13793;55.388;37.844;2023-05-10T01:54:21;31.00;;;19.17;;
26014;SDS011;13793;55.388;37.844;2023-05-10T01:56:55;33.27;;;21.77;;
26014;SDS011;13793;55.388;37.844;2023-05-10T01:59:28;32.00;;;20.10;;
26014;SDS011;13793;55.388;37.844;2023-05-10T02:02:01;31.33;;;20.33;;
26014;SDS011;13793;55.388;37.844;2023-05-10T02:04:33;34.30;;;20.47;;
26014;SDS011;13793;55.388;37.844;2023-05-10T02:07:06;34.77;;;20.17;;
26014;SDS011;13793;55.388;37.844;2023-05-10T02:09:37;31.23;;;19.47;;
26014;SDS011;13793;55.388;37.844;2023-05-10T02:12:08;35.97;;;21.03;;
26014;SDS011;13793;55.388;37.844;2023-05-10T02:14:40;34.23;;;19.77;;
26014;SDS011;13793;55.388;37.844;2023-05-10T02:17:11;34.83;;;20.23;;
26014;SDS011;13793;55.388;37.844;2023-05-10T02:19:42;31.70;;;19.87;;
26014;SDS011;13793;55.388;37.844;2023-05-10T02:22:14;31.97;;;19.37;;
26014;SDS011;13793;55.388;37.844;2023-05-10T02:24:45;35.27;;;21.30;;
26014;SDS011;13793;55.388;37.844;2023-05-10T02:27:16;33.03;;;21.00;;
26014;SDS011;13793;55.388;37.844;2023-05-10T02:29:47;32.60;;;20.60;;
26014;SDS011;13793;55.388;37.844;2023-05-10T02:32:19;32.73;;;19.17;;
26014;SDS011;13793;55.388;37.844;2023-05-10T02:34:51;28.47;;;19.53;;
26014;SDS011;13793;55.388;37.844;2023-05-10T02:37:22;29.43;;;19.23;;
26014;SDS011;13793;55.388;37.844;2023-05-10T02:39:54;31.87;;;20.20;;
26014;SDS011;13793;55.388;37.844;2023-05-10T02:42:26;30.70;;;18.47;;
26014;SDS011;13793;55.388;37.844;2023-05-10T02:44:59;29.13;;;19.03;;
26014;SDS011;13793;55.388;37.844;2023-05-10T02:47:32;31.60;;;19.73;;
26014;SDS011;13793;55.388;37.844;2023-05-10T02:50:03;33.30;;;20.60;;
26014;SDS011;13793;55.388;37.844;2023-05-10T02:52:37;30.07;;;19.60;;
26014;SDS011;13793;55.388;37.844;2023-05-10T02:55:09;28.93;;;17.77;;
26014;SDS011;13793;55.388;37.844;2023-05-10T02:57:43;31.07;;;19.23;;
26014;SDS011;13793;55.388;37.844;2023-05-10T03:00:14;29.57;;;18.40;;
26014;SDS011;13793;55.388;37.844;2023-05-10T03:02:45;28.93;;;18.67;;
26014;SDS011;13793;55.388;37.844;2023-05-10T03:05:15;28.50;;;17.80;;
26014;SDS011;13793;55.388;37.844;2023-05-10T03:07:46;30.67;;;18.87;;
26014;SDS011;13793;55.388;37.844;2023-05-10T03:10:17;27.77;;;17.70;;
26014;SDS011;13793;55.388;37.844;2023-05-10T03:12:57;29.73;;;17.70;;
26014;SDS011;13793;55.388;37.844;2023-05-10T03:19:01;30.30;;;17.90;;
26014;SDS011;13793;55.388;37.844;2023-05-10T03:21:15;26.67;;;17.37;;
26014;SDS011;13793;55.388;37.844;2023-05-10T03:23:50;27.77;;;16.20;;
26014;SDS011;13793;55.388;37.844;2023-05-10T03:26:26;26.13;;;16.20;;
26014;SDS011;13793;55.388;37.844;2023-05-10T03:28:59;24.17;;;15.73;;
26014;SDS011;13793;55.388;37.844;2023-05-10T03:31:30;24.20;;;14.43;;
26014;SDS011;13793;55.388;37.844;2023-05-10T03:34:01;22.17;;;14.80;;
26014;SDS011;13793;55.388;37.844;2023-05-10T03:36:32;22.27;;;13.63;;
26014;SDS011;13793;55.388;37.844;2023-05-10T03:39:03;20.50;;;14.03;;
26014;SDS011;13793;55.388;37.844;2023-05-10T03:41:34;22.80;;;13.53;;
26014;SDS011;13793;55.388;37.844;2023-05-10T03:44:08;20.63;;;13.07;;
26014;SDS011;13793;55.388;37.844;2023-05-10T03:46:39;18.47;;;12.57;;
26014;SDS011;13793;55.388;37.844;2023-05-10T03:49:09;18.70;;;11.70;;
26014;SDS011;13793;55.388;37.844;2023-05-10T03:51:40;16.30;;;11.37;;
26014;SDS011;13793;55.388;37.844;2023-05-10T03:54:11;18.17;;;12.13;;
26014;SDS011;13793;55.388;37.844;2023-05-10T03:56:42;14.60;;;11.23;;
26014;SDS011;13793;55.388;37.844;2023-05-10T03:59:15;16.90;;;11.50;;
26014;SDS011;13793;55.388;37.844;2023-05-10T04:01:45;18.93;;;11.83;;
26014;SDS011;13793;55.388;37.844;2023-05-10T04:04:16;18.80;;;11.77;;
26014;SDS011;13793;55.388;37.844;2023-05-10T04:06:48;18.50;;;11.63;;
26014;SDS011;13793;55.388;37.844;2023-05-10T04:09:19;17.93;;;11.03;;
26014;SDS011;13793;55.388;37.844;2023-05-10T04:11:49;15.83;;;10.50;;
26014;SDS011;13793;55.388;37.844;2023-05-10T04:14:20;16.23;;;10.83;;
26014;SDS011;13793;55.388;37.844;2023-05-10T04:16:51;17.50;;;11.20;;
26014;SDS011;13793;55.388;37.844;2023-05-10T04:19:21;15.13;;;10.23;;
26014;SDS011;13793;55.388;37.844;2023-05-10T04:21:52;14.83;;;10.07;;
26014;SDS011;13793;55.388;37.844;2023-05-10T04:24:23;14.77;;;9.97;;
26014;SDS011;13793;55.388;37.844;2023-05-10T04:26:54;18.23;;;10.43;;
26014;SDS011;13793;55.388;37.844;2023-05-10T04:29:25;14.40;;;10.13;;
26014;SDS011;13793;55.388;37.844;2023-05-10T04:32:08;14.90;;;9.57;;
26014;SDS011;13793;55.388;37.844;2023-05-10T04:34:38;14.63;;;8.90;;
26014;SDS011;13793;55.388;37.844;2023-05-10T04:37:09;15.07;;;9.10;;
26014;SDS011;13793;55.388;37.844;2023-05-10T04:39:40;14.07;;;9.13;;
26014;SDS011;13793;55.388;37.844;2023-05-10T04:42:11;13.20;;;8.97;;
26014;SDS011;13793;55.388;37.844;2023-05-10T04:44:43;14.53;;;9.07;;
26014;SDS011;13793;55.388;37.844;2023-05-10T04:47:14;12.53;;;8.53;;
26014;SDS011;13793;55.388;37.844;2023-05-10T04:49:45;14.23;;;8.57;;
26014;SDS011;13793;55.388;37.844;2023-05-10T04:52:15;14.33;;;7.67;;
26014;SDS011;13793;55.388;37.844;2023-05-10T04:54:46;11.87;;;7.43;;
26014;SDS011;13793;55.388;37.844;2023-05-10T04:57:17;13.63;;;7.50;;
26014;SDS011;13793;55.388;37.844;2023-05-10T04:59:47;12.73;;;7.90;;
26014;SDS011;13793;55.388;37.844;2023-05-10T05:02:18;10.00;;;7.03;;
26014;SDS011;13793;55.388;37.844;2023-05-10T05:04:49;13.47;;;7.93;;
26014;SDS011;13793;55.388;37.844;2023-05-10T05:07:20;15.37;;;7.83;;
26014;SDS011;13793;55.388;37.844;2023-05-10T05:09:50;11.57;;;7.70;;
26014;SDS011;13793;55.388;37.844;2023-05-10T05:12:21;16.13;;;7.77;;
26014;SDS011;13793;55.388;37.844;2023-05-10T05:14:52;12.13;;;7.13;;
26014;SDS011;13793;55.388;37.844;2023-05-10T05:17:23;10.23;;;6.80;;
26014;SDS011;13793;55.388;37.844;2023-05-10T05:19:53;11.80;;;7.30;;
26014;SDS011;13793;55.388;37.844;2023-05-10T05:22:24;11.30;;;6.17;;
26014;SDS011;13793;55.388;37.844;2023-05-10T05:24:57;13.40;;;6.47;;
26014;SDS011;13793;55.388;37.844;2023-05-10T05:27:30;12.23;;;6.50;;
26014;SDS011;13793;55.388;37.844;2023-05-10T05:30:01;11.63;;;6.50;;
26014;SDS011;13793;55.388;37.844;2023-05-10T05:32:32;10.37;;;6.33;;
26014;SDS011;13793;55.388;37.844;2023-05-10T05:35:04;10.23;;;6.00;;
26014;SDS011;13793;55.388;37.844;2023-05-10T05:37:35;11.03;;;5.67;;
26014;SDS011;13793;55.388;37.844;2023-05-10T05:40:06;10.10;;;6.00;;
26014;SDS011;13793;55.388;37.844;2023-05-10T05:42:37;12.07;;;6.37;;
26014;SDS011;13793;55.388;37.844;2023-05-10T05:45:08;9.97;;;5.67;;
26014;SDS011;13793;55.388;37.844;2023-05-10T05:47:40;13.90;;;6.13;;
26014;SDS011;13793;55.388;37.844;2023-05-10T05:50:11;11.80;;;6.37;;
26014;SDS011;13793;55.388;37.844;2023-05-10T05:52:42;9.63;;;5.47;;
26014;SDS011;13793;55.388;37.844;2023-05-10T05:55:13;10.45;;;5.50;;
26014;SDS011;13793;55.388;37.844;2023-05-10T05:57:45;9.47;;;5.67;;
26014;SDS011;13793;55.388;37.844;2023-05-10T06:00:16;10.93;;;5.10;;
26014;SDS011;13793;55.388;37.844;2023-05-10T06:02:47;14.15;;;5.12;;
26014;SDS011;13793;55.388;37.844;2023-05-10T06:05:20;9.80;;;5.65;;
26014;SDS011;13793;55.388;37.844;2023-05-10T06:07:51;11.35;;;5.05;;
26014;SDS011;13793;55.388;37.844;2023-05-10T06:10:22;8.33;;;4.65;;
26014;SDS011;13793;55.388;37.844;2023-05-10T06:12:53;11.97;;;4.55;;
26014;SDS011;13793;55.388;37.844;2023-05-10T06:15:24;7.22;;;4.30;;
26014;SDS011;13793;55.388;37.844;2023-05-10T06:17:56;5.80;;;4.17;;
26014;SDS011;13793;55.388;37.844;2023-05-10T06:20:26;8.40;;;4.25;;
26014;SDS011;13793;55.388;37.844;2023-05-10T06:22:57;7.75;;;3.98;;
26014;SDS011;13793;55.388;37.844;2023-05-10T06:25:28;9.40;;;4.25;;
26014;SDS011;13793;55.388;37.844;2023-05-10T06:27:59;10.63;;;4.10;;
26014;SDS011;13793;55.388;37.844;2023-05-10T06:30:30;7.10;;;4.37;;
26014;SDS011;13793;55.388;37.844;2023-05-10T06:33:01;10.28;;;4.37;;
26014;SDS011;13793;55.388;37.844;2023-05-10T06:35:32;5.10;;;3.30;;
26014;SDS011;13793;55.388;37.844;2023-05-10T06:38:03;7.05;;;3.33;;
26014;SDS011;13793;55.388;37.844;2023-05-10T06:40:34;9.20;;;2.95;;
26014;SDS011;13793;55.388;37.844;2023-05-10T06:43:04;4.45;;;2.87;;
26014;SDS011;13793;55.388;37.844;2023-05-10T06:45:35;6.75;;;3.27;;
26014;SDS011;13793;55.388;37.844;2023-05-10T06:48:06;5.55;;;3.00;;
26014;SDS011;13793;55.388;37.844;2023-05-10T06:50:37;4.53;;;2.67;;
26014;SDS011;13793;55.388;37.844;2023-05-10T06:53:08;4.42;;;2.60;;
26014;SDS011;13793;55.388;37.844;2023-05-10T06:55:40;4.37;;;2.85;;
26014;SDS011;13793;55.388;37.844;2023-05-10T06:58:10;6.10;;;3.17;;
26014;SDS011;13793;55.388;37.844;2023-05-10T07:00:41;5.67;;;3.17;;
26014;SDS011;13793;55.388;37.844;2023-05-10T07:03:13;4.97;;;2.87;;
26014;SDS011;13793;55.388;37.844;2023-05-10T07:05:48;4.25;;;2.80;;
26014;SDS011;13793;55.388;37.844;2023-05-10T07:08:18;5.20;;;2.77;;
26014;SDS011;13793;55.388;37.844;2023-05-10T07:10:49;5.20;;;2.40;;
26014;SDS011;13793;55.388;37.844;2023-05-10T07:13:20;3.67;;;2.47;;
26014;SDS011;13793;55.388;37.844;2023-05-10T07:15:50;5.67;;;2.90;;
26014;SDS011;13793;55.388;37.844;2023-05-10T07:18:22;5.12;;;2.45;;
26014;SDS011;13793;55.388;37.844;2023-05-10T07:20:52;6.05;;;2.80;;
26014;SDS011;13793;55.388;37.844;2023-05-10T07:23:23;5.60;;;2.47;;
26014;SDS011;13793;55.388;37.844;2023-05-10T07:25:54;3.37;;;2.17;;
26014;SDS011;13793;55.388;37.844;2023-05-10T07:28:25;6.30;;;2.45;;
26014;SDS011;13793;55.388;37.844;2023-05-10T07:30:56;5.10;;;2.52;;
26014;SDS011;13793;55.388;37.844;2023-05-10T07:33:27;7.95;;;2.30;;
26014;SDS011;13793;55.388;37.844;2023-05-10T07:35:58;2.60;;;2.20;;
26014;SDS011;13793;55.388;37.844;2023-05-10T07:38:29;5.40;;;1.95;;
26014;SDS011;13793;55.388;37.844;2023-05-10T07:40:59;3.95;;;1.80;;
26014;SDS011;13793;55.388;37.844;2023-05-10T07:43:30;7.03;;;2.00;;
26014;SDS011;13793;55.388;37.844;2023-05-10T07:46:01;4.40;;;1.90;;
26014;SDS011;13793;55.388;37.844;2023-05-10T07:48:31;6.37;;;1.80;;
26014;SDS011;13793;55.388;37.844;2023-05-10T07:51:02;3.37;;;1.70;;
26014;SDS011;13793;55.388;37.844;2023-05-10T07:53:35;3.87;;;2.08;;
26014;SDS011;13793;55.388;37.844;2023-05-10T07:56:22;4.17;;;1.90;;
26014;SDS011;13793;55.388;37.844;2023-05-10T07:59:01;3.85;;;1.80;;
26014;SDS011;13793;55.388;37.844;2023-05-10T08:01:35;6.87;;;2.00;;
26014;SDS011;13793;55.388;37.844;2023-05-10T08:04:06;3.92;;;1.80;;
26014;SDS011;13793;55.388;37.844;2023-05-10T08:06:37;2.58;;;1.90;;
26014;SDS011;13793;55.388;37.844;2023-05-10T08:09:08;4.33;;;1.72;;
26014;SDS011;13793;55.388;37.844;2023-05-10T08:11:39;3.90;;;1.70;;
26014;SDS011;13793;55.388;37.844;2023-05-10T08:14:10;2.40;;;1.65;;
26014;SDS011;13793;55.388;37.844;2023-05-10T08:16:41;3.87;;;1.57;;
26014;SDS011;13793;55.388;37.844;2023-05-10T08:19:11;5.45;;;1.60;;
26014;SDS011;13793;55.388;37.844;2023-05-10T08:21:43;3.50;;;1.80;;
26014;SDS011;13793;55.388;37.844;2023-05-10T08:24:13;5.60;;;1.70;;
26014;SDS011;13793;55.388;37.844;2023-05-10T08:26:44;4.28;;;2.00;;
26014;SDS011;13793;55.388;37.844;2023-05-10T08:29:15;5.05;;;2.02;;
26014;SDS011;13793;55.388;37.844;2023-05-10T08:31:46;4.35;;;2.00;;
26014;SDS011;13793;55.388;37.844;2023-05-10T08:34:16;3.42;;;2.15;;
26014;SDS011;13793;55.388;37.844;2023-05-10T08:36:47;3.55;;;2.00;;
26014;SDS011;13793;55.388;37.844;2023-05-10T08:39:18;4.25;;;1.82;;
26014;SDS011;13793;55.388;37.844;2023-05-10T08:41:48;5.03;;;1.77;;
26014;SDS011;13793;55.388;37.844;2023-05-10T08:44:20;5.17;;;1.92;;
26014;SDS011;13793;55.388;37.844;2023-05-10T08:46:51;4.45;;;1.75;;
26014;SDS011;13793;55.388;37.844;2023-05-10T08:49:23;3.62;;;2.08;;
26014;SDS011;13793;55.388;37.844;2023-05-10T08:51:55;5.50;;;1.60;;
26014;SDS011;13793;55.388;37.844;2023-05-10T08:54:26;2.77;;;1.72;;
26014;SDS011;13793;55.388;37.844;2023-05-10T08:56:58;4.58;;;1.40;;
26014;SDS011;13793;55.388;37.844;2023-05-10T08:59:29;2.77;;;1.95;;
26014;SDS011;13793;55.388;37.844;2023-05-10T09:02:00;3.77;;;1.50;;
26014;SDS011;13793;55.388;37.844;2023-05-10T09:04:30;3.47;;;1.62;;
26014;SDS011;13793;55.388;37.844;2023-05-10T09:07:01;2.77;;;1.85;;
26014;SDS011;13793;55.388;37.844;2023-05-10T09:09:32;6.37;;;2.15;;
26014;SDS011;13793;55.388;37.844;2023-05-10T09:12:04;3.00;;;1.77;;
26014;SDS011;13793;55.388;37.844;2023-05-10T09:14:35;3.02;;;1.82;;
26014;SDS011;13793;55.388;37.844;2023-05-10T09:17:06;3.92;;;1.57;;
26014;SDS011;13793;55.388;37.844;2023-05-10T09:19:38;4.15;;;1.40;;
26014;SDS011;13793;55.388;37.844;2023-05-10T09:22:09;4.35;;;1.80;;
26014;SDS011;13793;55.388;37.844;2023-05-10T09:24:40;4.00;;;1.87;;
26014;SDS011;13793;55.388;37.844;2023-05-10T09:27:16;5.37;;;1.93;;
26014;SDS011;13793;55.388;37.844;2023-05-10T09:29:47;4.53;;;1.80;;
26014;SDS011;13793;55.388;37.844;2023-05-10T09:32:22;4.50;;;1.85;;
26014;SDS011;13793;55.388;37.844;2023-05-10T09:35:14;3.55;;;1.65;;
26014;SDS011;13793;55.388;37.844;2023-05-10T09:37:39;2.27;;;1.50;;
26014;SDS011;13793;55.388;37.844;2023-05-10T09:40:11;3.02;;;1.62;;
26014;SDS011;13793;55.388;37.844;2023-05-10T09:42:58;3.25;;;1.70;;
26014;SDS011;13793;55.388;37.844;2023-05-10T09:45:31;3.98;;;1.80;;
26014;SDS011;13793;55.388;37.844;2023-05-10T09:48:02;2.15;;;1.52;;
26014;SDS011;13793;55.388;37.844;2023-05-10T09:50:33;5.00;;;1.70;;
26014;SDS011;13793;55.388;37.844;2023-05-10T09:53:03;3.87;;;1.77;;
26014;SDS011;13793;55.388;37.844;2023-05-10T09:55:44;6.00;;;1.82;;
26014;SDS011;13793;55.388;37.844;2023-05-10T09:58:17;6.17;;;2.10;;
26014;SDS011;13793;55.388;37.844;2023-05-10T10:00:47;4.60;;;1.82;;
26014;SDS011;13793;55.388;37.844;2023-05-10T10:03:20;3.15;;;1.80;;
26014;SDS011;13793;55.388;37.844;2023-05-10T10:05:52;3.98;;;2.00;;
26014;SDS011;13793;55.388;37.844;2023-05-10T10:08:24;14.70;;;4.33;;
26014;SDS011;13793;55.388;37.844;2023-05-10T10:10:55;5.35;;;2.17;;
26014;SDS011;13793;55.388;37.844;2023-05-10T10:13:26;17.37;;;9.40;;
26014;SDS011;13793;55.388;37.844;2023-05-10T10:15:56;4.65;;;2.95;;
26014;SDS011;13793;55.388;37.844;2023-05-10T10:18:27;4.65;;;2.45;;
26014;SDS011;13793;55.388;37.844;2023-05-10T10:21:00;4.50;;;2.17;;
26014;SDS011;13793;55.388;37.844;2023-05-10T10:23:31;3.58;;;2.08;;
26014;SDS011;13793;55.388;37.844;2023-05-10T10:26:08;4.10;;;2.00;;
26014;SDS011;13793;55.388;37.844;2023-05-10T10:28:36;2.52;;;1.50;;
26014;SDS011;13793;55.388;37.844;2023-05-10T10:31:13;5.87;;;1.75;;
26014;SDS011;13793;55.388;37.844;2023-05-10T10:36:27;2.87;;;1.67;;
26014;SDS011;13793;55.388;37.844;2023-05-10T10:38:58;5.80;;;1.70;;
26014;SDS011;13793;55.388;37.844;2023-05-10T10:41:31;2.95;;;1.80;;
26014;SDS011;13793;55.388;37.844;2023-05-10T10:44:53;2.95;;;1.62;;
26014;SDS011;13793;55.388;37.844;2023-05-10T10:47:21;2.77;;;1.80;;
26014;SDS011;13793;55.388;37.844;2023-05-10T10:49:50;3.62;;;1.60;;
26014;SDS011;13793;55.388;37.844;2023-05-10T10:55:03;4.78;;;1.87;;
26014;SDS011;13793;55.388;37.844;2023-05-10T10:57:46;4.15;;;2.00;;
26014;SDS011;13793;55.388;37.844;2023-05-10T11:00:28;6.22;;;1.95;;
26014;SDS011;13793;55.388;37.844;2023-05-10T11:03:10;3.25;;;1.62;;
26014;SDS011;13793;55.388;37.844;2023-05-10T11:05:43;2.85;;;1.47;;
26014;SDS011;13793;55.388;37.844;2023-05-10T11:08:34;5.65;;;2.00;;
26014;SDS011;13793;55.388;37.844;2023-05-10T11:11:06;3.98;;;1.80;;
26014;SDS011;13793;55.388;37.844;2023-05-10T11:13:38;3.87;;;1.92;;
26014;SDS011;13793;55.388;37.844;2023-05-10T11:16:10;5.70;;;2.00;;
26014;SDS011;13793;55.388;37.844;2023-05-10T11:18:52;4.85;;;1.77;;
26014;SDS011;13793;55.388;37.844;2023-05-10T11:21:44;7.58;;;4.60;;
26014;SDS011;13793;55.388;37.844;2023-05-10T11:24:01;2.87;;;1.90;;
26014;SDS011;13793;55.388;37.844;2023-05-10T11:26:34;3.80;;;1.60;;
26014;SDS011;13793;55.388;37.844;2023-05-10T11:29:05;3.37;;;1.72;;
26014;SDS011;13793;55.388;37.844;2023-05-10T11:31:41;4.87;;;1.80;;
26014;SDS011;13793;55.388;37.844;2023-05-10T11:34:24;5.03;;;1.80;;
26014;SDS011;13793;55.388;37.844;2023-05-10T11:36:59;3.22;;;1.90;;
26014;SDS011;13793;55.388;37.844;2023-05-10T11:39:30;2.37;;;1.72;;
26014;SDS011;13793;55.388;37.844;2023-05-10T11:42:02;2.77;;;1.60;;
26014;SDS011;13793;55.388;37.844;2023-05-10T11:44:32;11.25;;;10.10;;
26014;SDS011;13793;55.388;37.844;2023-05-10T11:47:03;8.53;;;6.17;;
26014;SDS011;13793;55.388;37.844;2023-05-10T11:49:34;8.00;;;5.72;;
26014;SDS011;13793;55.388;37.844;2023-05-10T11:52:05;7.00;;;4.03;;
26014;SDS011;13793;55.388;37.844;2023-05-10T11:54:36;7.67;;;6.80;;
26014;SDS011;13793;55.388;37.844;2023-05-10T11:57:07;4.75;;;2.50;;
26014;SDS011;13793;55.388;37.844;2023-05-10T11:59:38;2.98;;;1.72;;
26014;SDS011;13793;55.388;37.844;2023-05-10T12:02:08;2.52;;;1.75;;
26014;SDS011;13793;55.388;37.844;2023-05-10T12:04:40;4.78;;;2.92;;
26014;SDS011;13793;55.388;37.844;2023-05-10T12:07:11;3.70;;;2.40;;
26014;SDS011;13793;55.388;37.844;2023-05-10T12:09:42;4.80;;;2.37;;
26014;SDS011;13793;55.388;37.844;2023-05-10T12:12:16;4.10;;;2.90;;
26014;SDS011;13793;55.388;37.844;2023-05-10T12:14:53;4.62;;;2.50;;
26014;SDS011;13793;55.388;37.844;2023-05-10T12:17:20;3.10;;;2.40;;
26014;SDS011;13793;55.388;37.844;2023-05-10T12:19:50;10.88;;;6.70;;
26014;SDS011;13793;55.388;37.844;2023-05-10T12:22:21;5.85;;;3.20;;
26014;SDS011;13793;55.388;37.844;2023-05-10T12:24:51;3.70;;;2.60;;
26014;SDS011;13793;55.388;37.844;2023-05-10T12:27:22;4.58;;;2.50;;
26014;SDS011;13793;55.388;37.844;2023-05-10T12:29:52;4.22;;;2.50;;
26014;SDS011;13793;55.388;37.844;2023-05-10T12:32:36;5.95;;;2.45;;
26014;SDS011;13793;55.388;37.844;2023-05-10T12:35:10;2.15;;;1.50;;
26014;SDS011;13793;55.388;37.844;2023-05-10T12:37:42;3.60;;;2.20;;
26014;SDS011;13793;55.388;37.844;2023-05-10T12:40:12;3.08;;;2.10;;
26014;SDS011;13793;55.388;37.844;2023-05-10T12:42:43;4.28;;;2.27;;
26014;SDS011;13793;55.388;37.844;2023-05-10T12:45:14;3.70;;;1.90;;
26014;SDS011;13793;55.388;37.844;2023-05-10T12:47:46;4.58;;;2.12;;
26014;SDS011;13793;55.388;37.844;2023-05-10T12:50:17;5.00;;;2.27;;
26014;SDS011;13793;55.388;37.844;2023-05-10T12:52:48;5.85;;;2.30;;
26014;SDS011;13793;55.388;37.844;2023-05-10T12:55:19;4.15;;;1.87;;
26014;SDS011;13793;55.388;37.844;2023-05-10T12:57:49;2.15;;;1.77;;
26014;SDS011;13793;55.388;37.844;2023-05-10T13:00:20;5.15;;;2.20;;
26014;SDS011;13793;55.388;37.844;2023-05-10T13:02:51;2.45;;;1.82;;
26014;SDS011;13793;55.388;37.844;2023-05-10T13:05:21;5.40;;;2.30;;
26014;SDS011;13793;55.388;37.844;2023-05-10T13:07:52;3.98;;;2.30;;
26014;SDS011;13793;55.388;37.844;2023-05-10T13:10:23;3.22;;;2.25;;
26014;SDS011;13793;55.388;37.844;2023-05-10T13:12:54;5.17;;;2.08;;
26014;SDS011;13793;55.388;37.844;2023-05-10T13:15:25;3.72;;;2.05;;
26014;SDS011;13793;55.388;37.844;2023-05-10T13:17:56;3.98;;;2.15;;
26014;SDS011;13793;55.388;37.844;2023-05-10T13:20:29;5.33;;;2.17;;
26014;SDS011;13793;55.388;37.844;2023-05-10T13:23:00;4.33;;;2.60;;
26014;SDS011;13793;55.388;37.844;2023-05-10T13:25:31;3.58;;;2.35;;
26014;SDS011;13793;55.388;37.844;2023-05-10T13:28:02;4.55;;;2.60;;
26014;SDS011;13793;55.388;37.844;2023-05-10T13:30:33;4.37;;;2.22;;
26014;SDS011;13793;55.388;37.844;2023-05-10T13:33:04;4.97;;;2.40;;
26014;SDS011;13793;55.388;37.844;2023-05-10T13:35:35;4.65;;;2.42;;
26014;SDS011;13793;55.388;37.844;2023-05-10T13:38:05;3.22;;;2.42;;
26014;SDS011;13793;55.388;37.844;2023-05-10T13:40:36;4.85;;;2.42;;
26014;SDS011;13793;55.388;37.844;2023-05-10T13:43:07;4.30;;;2.17;;
26014;SDS011;13793;55.388;37.844;2023-05-10T13:45:38;4.33;;;2.40;;
26014;SDS011;13793;55.388;37.844;2023-05-10T13:48:08;7.50;;;2.37;;
26014;SDS011;13793;55.388;37.844;2023-05-10T13:50:38;4.65;;;2.25;;
26014;SDS011;13793;55.388;37.844;2023-05-10T13:53:10;4.42;;;2.10;;
26014;SDS011;13793;55.388;37.844;2023-05-10T13:55:41;3.75;;;2.22;;
26014;SDS011;13793;55.388;37.844;2023-05-10T13:58:12;3.55;;;1.98;;
26014;SDS011;13793;55.388;37.844;2023-05-10T14:00:42;3.25;;;2.22;;
26014;SDS011;13793;55.388;37.844;2023-05-10T14:03:13;6.00;;;3.20;;
26014;SDS011;13793;55.388;37.844;2023-05-10T14:05:44;6.53;;;4.00;;
26014;SDS011;13793;55.388;37.844;2023-05-10T14:08:15;5.83;;;2.80;;
26014;SDS011;13793;55.388;37.844;2023-05-10T14:10:46;4.42;;;2.65;;
26014;SDS011;13793;55.388;37.844;2023-05-10T14:13:17;5.92;;;2.72;;
26014;SDS011;13793;55.388;37.844;2023-05-10T14:15:48;4.37;;;2.47;;
26014;SDS011;13793;55.388;37.844;2023-05-10T14:18:18;3.40;;;2.52;;
26014;SDS011;13793;55.388;37.844;2023-05-10T14:20:49;6.58;;;2.67;;
26014;SDS011;13793;55.388;37.844;2023-05-10T14:23:20;4.75;;;2.50;;
26014;SDS011;13793;55.388;37.844;2023-05-10T14:25:53;4.03;;;2.00;;
26014;SDS011;13793;55.388;37.844;2023-05-10T14:28:23;3.25;;;2.47;;
26014;SDS011;13793;55.388;37.844;2023-05-10T14:30:54;3.05;;;2.00;;
26014;SDS011;13793;55.388;37.844;2023-05-10T14:33:25;7.08;;;2.20;;
26014;SDS011;13793;55.388;37.844;2023-05-10T14:35:56;4.20;;;2.22;;
26014;SDS011;13793;55.388;37.844;2023-05-10T14:38:28;5.12;;;2.47;;
26014;SDS011;13793;55.388;37.844;2023-05-10T14:40:59;4.12;;;2.50;;
26014;SDS011;13793;55.388;37.844;2023-05-10T14:43:29;3.00;;;2.30;;
26014;SDS011;13793;55.388;37.844;2023-05-10T14:46:00;4.55;;;2.52;;
26014;SDS011;13793;55.388;37.844;2023-05-10T14:48:31;7.58;;;3.08;;
26014;SDS011;13793;55.388;37.844;2023-05-10T14:51:02;4.90;;;2.65;;
26014;SDS011;13793;55.388;37.844;2023-05-10T14:53:33;7.60;;;2.65;;
26014;SDS011;13793;55.388;37.844;2023-05-10T14:56:04;4.87;;;2.50;;
26014;SDS011;13793;55.388;37.844;2023-05-10T14:58:35;4.20;;;2.20;;
26014;SDS011;13793;55.388;37.844;2023-05-10T15:01:05;4.08;;;2.30;;
26014;SDS011;13793;55.388;37.844;2023-05-10T15:03:36;4.53;;;2.45;;
26014;SDS011;13793;55.388;37.844;2023-05-10T15:06:07;4.83;;;2.58;;
26014;SDS011;13793;55.388;37.844;2023-05-10T15:08:38;5.65;;;2.65;;
26014;SDS011;13793;55.388;37.844;2023-05-10T15:11:08;4.08;;;2.12;;
26014;SDS011;13793;55.388;37.844;2023-05-10T15:13:39;4.62;;;2.20;;